Time;durP1;ratioP1;P1;durP2;ratioP2;P2;SDS_P1;SDS_P2;PMS_P1;PMS_P2;Temp;Humidity;BMP_temperature;BMP_pressure;BME280_temperature;BME280_humidity;BME280_pressure;Samples;Min_cycle;Max_cycle;Signal;HPM_P1;HPM_P2
2021/03/16 00:01:56;;;;;;;5.72;1.90;;;5.90;99.90;;;;;;5092333;28;20507;-75
2021/03/16 00:04:21;;;;;;;2.47;1.00;;;5.80;99.90;;;;;;5092965;28;20028;-75
2021/03/16 00:06:47;;;;;;;2.35;1.20;;;5.80;99.90;;;;;;5093035;28;20119;-75
2021/03/16 00:09:13;;;;;;;7.35;1.67;;;5.80;99.90;;;;;;5092886;28;20024;-75
2021/03/16 00:11:39;;;;;;;5.22;1.20;;;5.80;99.90;;;;;;5092663;28;20046;-76
2021/03/16 00:14:05;;;;;;;2.67;1.70;;;5.70;99.90;;;;;;5092784;28;20038;-74
2021/03/16 00:16:31;;;;;;;2.85;1.48;;;5.70;99.90;;;;;;5092986;28;20129;-74
2021/03/16 00:18:57;;;;;;;7.80;2.20;;;5.70;99.90;;;;;;5092997;28;20623;-76
2021/03/16 00:21:23;;;;;;;7.28;1.50;;;5.70;99.90;;;;;;5092749;28;20114;-77
2021/03/16 00:23:49;;;;;;;3.10;0.93;;;5.60;99.90;;;;;;5092722;28;20099;-76
2021/03/16 00:26:15;;;;;;;6.43;1.13;;;5.60;99.90;;;;;;5092692;28;20024;-76
2021/03/16 00:28:41;;;;;;;4.78;1.75;;;5.70;99.90;;;;;;5092701;28;20016;-74
2021/03/16 00:31:07;;;;;;;3.90;1.27;;;5.70;99.90;;;;;;5092580;28;20077;-74
2021/03/16 00:33:33;;;;;;;2.67;1.35;;;5.70;99.90;;;;;;5092556;28;20559;-77
2021/03/16 00:35:59;;;;;;;1.88;1.05;;;5.70;99.90;;;;;;5091136;28;20024;-77
2021/03/16 00:38:25;;;;;;;5.30;1.08;;;5.70;99.90;;;;;;5091706;28;20032;-76
2021/03/16 00:40:50;;;;;;;2.40;1.38;;;5.70;99.90;;;;;;5091446;28;20103;-76
2021/03/16 00:43:17;;;;;;;4.82;1.55;;;5.70;99.90;;;;;;5091922;28;20063;-76
2021/03/16 00:45:44;;;;;;;10.80;1.85;;;5.70;99.90;;;;;;5092592;28;20039;-74
2021/03/16 00:48:17;;;;;;;7.20;1.48;;;5.70;99.90;;;;;;5091290;28;20107;-74
2021/03/16 00:50:45;;;;;;;3.78;1.00;;;5.70;99.90;;;;;;5092467;28;20040;-77
2021/03/16 00:53:11;;;;;;;2.63;1.55;;;5.80;99.90;;;;;;5092361;28;20047;-75
2021/03/16 00:55:41;;;;;;;5.38;1.65;;;5.70;99.90;;;;;;5091029;28;20028;-76
2021/03/16 00:58:09;;;;;;;2.58;1.02;;;5.70;99.90;;;;;;5092057;28;20487;-77
2021/03/16 01:00:37;;;;;;;1.98;1.00;;;5.80;99.90;;;;;;5092284;28;20032;-76
2021/03/16 01:03:04;;;;;;;2.70;1.15;;;5.80;99.90;;;;;;5092292;28;20039;-77
2021/03/16 01:05:30;;;;;;;3.15;1.17;;;5.80;99.90;;;;;;5091029;28;20025;-76
2021/03/16 01:07:56;;;;;;;4.32;1.35;;;5.80;99.90;;;;;;5092373;28;20046;-77
2021/03/16 01:10:24;;;;;;;2.55;0.93;;;5.80;99.90;;;;;;5090990;28;20040;-76
2021/03/16 01:12:50;;;;;;;2.67;0.75;;;5.80;99.90;;;;;;5092127;28;20040;-76
2021/03/16 01:15:16;;;;;;;1.85;0.98;;;5.90;99.90;;;;;;5092364;28;20017;-77
2021/03/16 01:17:42;;;;;;;4.25;1.27;;;5.90;99.90;;;;;;5092254;28;20028;-77
2021/03/16 01:20:11;;;;;;;1.13;1.02;;;5.90;99.90;;;;;;5092363;28;20020;-76
2021/03/16 01:22:37;;;;;;;3.00;0.98;;;5.90;99.90;;;;;;5092126;28;20039;-76
2021/03/16 01:25:03;;;;;;;3.08;1.13;;;5.90;99.90;;;;;;5092220;28;20063;-76
2021/03/16 01:27:29;;;;;;;5.03;0.90;;;6.00;99.90;;;;;;5092067;28;20028;-75
2021/03/16 01:29:55;;;;;;;3.47;0.70;;;6.00;99.90;;;;;;5091959;28;20073;-77
2021/03/16 01:32:31;;;;;;;2.47;0.82;;;6.00;99.90;;;;;;5092151;28;20441;-77
2021/03/16 01:34:57;;;;;;;3.85;2.03;;;5.90;99.90;;;;;;5092039;28;20495;-77
2021/03/16 01:37:23;;;;;;;2.95;0.88;;;5.90;99.90;;;;;;5092060;28;20028;-77
2021/03/16 01:39:49;;;;;;;4.25;0.90;;;5.90;99.90;;;;;;5092021;28;20032;-75
2021/03/16 01:42:16;;;;;;;4.20;1.58;;;5.90;99.90;;;;;;5092018;28;20434;-76
2021/03/16 01:44:44;;;;;;;3.30;0.85;;;5.90;99.90;;;;;;5092078;28;20028;-77
2021/03/16 01:47:14;;;;;;;4.70;0.85;;;5.90;99.90;;;;;;5091954;28;20032;-76
2021/03/16 01:49:41;;;;;;;3.05;0.70;;;5.90;99.90;;;;;;5092274;28;20024;-76
2021/03/16 01:52:07;;;;;;;0.17;0.17;;;5.90;99.90;;;;;;5095378;28;20098;-77
2021/03/16 01:54:33;;;;;;;2.28;0.85;;;5.90;99.90;;;;;;5095466;28;20028;-77
2021/03/16 01:57:03;;;;;;;1.70;0.80;;;5.90;99.90;;;;;;5096017;28;20032;-75
2021/03/16 01:59:47;;;;;;;2.55;1.00;;;5.80;99.90;;;;;;5095744;28;20089;-76
2021/03/16 02:02:32;;;;;;;2.75;0.82;;;5.90;99.90;;;;;;5095626;28;20089;-75
2021/03/16 02:05:17;;;;;;;2.88;0.70;;;5.80;99.90;;;;;;5095564;28;20549;-75
2021/03/16 02:08:23;;;;;;;1.85;1.02;;;5.80;99.90;;;;;;5095127;28;20519;-75
2021/03/16 02:11:17;;;;;;;2.50;0.70;;;5.80;99.90;;;;;;5094991;28;20043;-75
2021/03/16 02:14:23;;;;;;;1.80;0.98;;;5.80;99.90;;;;;;5095241;28;20073;-75
2021/03/16 02:17:20;;;;;;;2.00;0.75;;;5.70;99.90;;;;;;5095206;28;20559;-75
2021/03/16 02:20:07;;;;;;;2.05;0.95;;;5.80;99.90;;;;;;5095126;28;20479;-75
2021/03/16 02:22:53;;;;;;;3.75;0.70;;;5.80;99.90;;;;;;5095165;28;20043;-76
2021/03/16 02:26:24;;;;;;;2.35;1.50;;;5.80;99.90;;;;;;5094816;28;20043;-76
2021/03/16 02:29:09;;;;;;;3.42;0.60;;;5.80;99.90;;;;;;5089236;28;20502;-75
2021/03/16 02:32:02;;;;;;;2.15;0.80;;;5.80;99.90;;;;;;5094717;28;20101;-75
2021/03/16 02:34:51;;;;;;;4.93;0.68;;;5.70;99.90;;;;;;5094992;28;20047;-75
2021/03/16 02:37:37;;;;;;;4.57;0.47;;;5.70;99.90;;;;;;5094851;28;20492;-76
2021/03/16 02:40:25;;;;;;;1.85;0.55;;;5.70;99.90;;;;;;5094556;28;20038;-75
2021/03/16 02:43:11;;;;;;;1.10;0.65;;;5.60;99.90;;;;;;5094836;28;20038;-75
2021/03/16 02:45:56;;;;;;;2.50;0.47;;;5.60;99.90;;;;;;5094530;28;20105;-76
2021/03/16 02:48:42;;;;;;;1.33;0.68;;;5.50;99.90;;;;;;5094578;28;20093;-77
2021/03/16 02:51:28;;;;;;;1.27;0.60;;;5.50;99.90;;;;;;5093237;28;20062;-77
2021/03/16 02:54:14;;;;;;;3.08;0.60;;;5.50;99.90;;;;;;5094435;28;20487;-76
2021/03/16 02:57:00;;;;;;;4.00;0.70;;;5.50;99.90;;;;;;5094463;28;20050;-77
2021/03/16 02:59:46;;;;;;;1.38;0.50;;;5.50;99.90;;;;;;5094236;28;20443;-76
2021/03/16 03:02:33;;;;;;;0.77;0.35;;;5.50;99.90;;;;;;5093716;28;20039;-77
2021/03/16 03:05:19;;;;;;;4.07;1.20;;;5.60;99.90;;;;;;5094251;28;20074;-76
2021/03/16 03:08:05;;;;;;;2.10;0.63;;;5.60;99.90;;;;;;5094288;28;20073;-77
2021/03/16 03:10:49;;;;;;;2.28;0.93;;;5.60;99.90;;;;;;5094060;28;20051;-74
2021/03/16 03:13:35;;;;;;;6.43;1.17;;;5.60;99.90;;;;;;5095738;28;20511;-75
2021/03/16 03:16:22;;;;;;;3.30;0.68;;;5.70;99.90;;;;;;5094312;28;20384;-75
2021/03/16 03:19:06;;;;;;;2.85;0.47;;;5.70;99.90;;;;;;5094028;28;20401;-74
2021/03/16 03:22:03;;;;;;;2.25;1.00;;;5.70;99.90;;;;;;5093930;28;20075;-74
2021/03/16 03:24:52;;;;;;;3.80;0.60;;;5.70;99.90;;;;;;5093777;28;20110;-75
2021/03/16 03:27:39;;;;;;;3.78;0.77;;;5.70;99.90;;;;;;5093876;28;20034;-75
2021/03/16 03:30:24;;;;;;;3.13;0.40;;;5.70;99.90;;;;;;5093599;28;20107;-75
2021/03/16 03:33:10;;;;;;;1.23;0.50;;;5.70;99.90;;;;;;5093767;28;20634;-75
2021/03/16 03:35:55;;;;;;;4.72;0.98;;;5.80;99.90;;;;;;5093566;28;20473;-75
2021/03/16 03:38:42;;;;;;;2.15;0.50;;;5.80;99.90;;;;;;5093492;28;20096;-75
2021/03/16 03:41:27;;;;;;;2.13;0.55;;;5.80;99.90;;;;;;5093451;28;20038;-76
2021/03/16 03:44:13;;;;;;;3.20;0.80;;;5.80;99.90;;;;;;5093404;28;20042;-74
2021/03/16 03:46:58;;;;;;;2.58;0.80;;;5.80;99.90;;;;;;5093280;28;20094;-76
2021/03/16 03:49:44;;;;;;;1.45;0.50;;;5.80;99.90;;;;;;5093318;28;20058;-74
2021/03/16 03:52:30;;;;;;;0.57;0.47;;;5.80;99.90;;;;;;5093438;28;20057;-74
2021/03/16 03:55:17;;;;;;;3.65;1.00;;;5.80;99.90;;;;;;5093333;28;20039;-75
2021/03/16 03:58:03;;;;;;;2.33;0.70;;;5.80;99.90;;;;;;5092656;28;20050;-74
2021/03/16 04:00:48;;;;;;;1.67;0.60;;;5.70;99.90;;;;;;5093086;28;20047;-74
2021/03/16 04:03:34;;;;;;;0.52;0.50;;;5.70;99.90;;;;;;5093316;28;20101;-76
2021/03/16 04:06:22;;;;;;;1.70;0.65;;;5.70;99.90;;;;;;5093032;28;20042;-76
2021/03/16 04:09:07;;;;;;;2.40;0.77;;;5.60;99.90;;;;;;5093241;28;20124;-77
2021/03/16 04:11:52;;;;;;;1.13;0.80;;;5.60;99.90;;;;;;5091697;28;20538;-77
2021/03/16 04:14:37;;;;;;;0.90;0.40;;;5.60;99.90;;;;;;5093149;28;20073;-77
2021/03/16 04:17:22;;;;;;;0.55;0.55;;;5.50;99.90;;;;;;5092114;28;20063;-75
2021/03/16 04:20:08;;;;;;;2.63;0.60;;;5.50;99.90;;;;;;5092762;28;20055;-77
2021/03/16 04:22:53;;;;;;;2.40;1.15;;;5.50;99.90;;;;;;5092987;28;20031;-75
2021/03/16 04:25:37;;;;;;;0.93;0.40;;;5.50;99.90;;;;;;5092782;28;20113;-77
2021/03/16 04:28:22;;;;;;;5.03;0.95;;;5.50;99.90;;;;;;5093208;28;20047;-74
2021/03/16 04:31:06;;;;;;;2.65;0.70;;;5.60;99.90;;;;;;5092449;28;20047;-74
2021/03/16 04:33:51;;;;;;;0.82;0.40;;;5.50;99.90;;;;;;5092465;28;20039;-74
2021/03/16 04:36:36;;;;;;;1.23;0.68;;;5.50;99.90;;;;;;5092613;28;20047;-75
2021/03/16 04:39:20;;;;;;;1.80;0.60;;;5.50;99.90;;;;;;5092750;28;20060;-74
2021/03/16 04:42:05;;;;;;;2.25;0.60;;;5.60;99.90;;;;;;5092690;28;20054;-76
2021/03/16 04:44:49;;;;;;;1.58;0.70;;;5.50;99.90;;;;;;5092392;28;20104;-77
2021/03/16 04:47:34;;;;;;;2.28;1.75;;;5.50;99.90;;;;;;5092500;28;20458;-75
2021/03/16 04:50:18;;;;;;;3.53;1.00;;;5.50;99.90;;;;;;5092632;28;20114;-77
2021/03/16 04:53:03;;;;;;;0.40;0.32;;;5.50;99.90;;;;;;5092794;28;20040;-76
2021/03/16 04:55:47;;;;;;;1.98;0.47;;;5.50;99.90;;;;;;5092592;28;20066;-76
2021/03/16 04:58:32;;;;;;;0.77;0.50;;;5.50;99.90;;;;;;5092163;28;20055;-77
2021/03/16 05:01:17;;;;;;;3.75;0.63;;;5.50;99.90;;;;;;5092494;28;20431;-77
2021/03/16 05:04:02;;;;;;;1.52;0.50;;;5.50;99.90;;;;;;5092542;28;20085;-77
2021/03/16 05:06:46;;;;;;;1.15;0.70;;;5.60;99.90;;;;;;5092528;28;20062;-76
2021/03/16 05:09:31;;;;;;;0.88;0.60;;;5.60;99.90;;;;;;5092597;28;20051;-76
2021/03/16 05:12:16;;;;;;;5.00;0.75;;;5.80;99.90;;;;;;5091183;28;20070;-76
2021/03/16 05:15:00;;;;;;;1.73;0.77;;;5.90;99.90;;;;;;5091193;28;20082;-75
2021/03/16 05:17:45;;;;;;;1.00;0.50;;;5.90;99.90;;;;;;5091573;28;20097;-77
2021/03/16 05:20:30;;;;;;;2.15;1.13;;;6.00;99.90;;;;;;5092228;28;20061;-76
2021/03/16 05:23:14;;;;;;;1.27;0.57;;;6.10;99.90;;;;;;5092639;28;20276;-77
2021/03/16 05:25:59;;;;;;;3.15;0.52;;;6.10;99.90;;;;;;5095960;28;20050;-77
2021/03/16 05:28:44;;;;;;;0.93;0.43;;;6.10;99.90;;;;;;5096267;28;20042;-77
2021/03/16 05:31:28;;;;;;;3.63;0.75;;;6.10;99.90;;;;;;5094812;28;20055;-76
2021/03/16 05:34:13;;;;;;;1.13;0.85;;;6.10;99.90;;;;;;5096072;28;20035;-77
2021/03/16 05:36:58;;;;;;;1.83;0.60;;;6.10;99.90;;;;;;5095749;28;20035;-75
2021/03/16 05:39:42;;;;;;;1.70;0.98;;;6.10;99.90;;;;;;5095775;28;20491;-77
2021/03/16 05:42:27;;;;;;;1.10;0.60;;;6.10;99.90;;;;;;5096976;28;20081;-75
2021/03/16 05:45:13;;;;;;;1.92;0.80;;;6.10;99.90;;;;;;5095716;28;20075;-76
2021/03/16 05:47:57;;;;;;;0.30;0.30;;;6.10;99.90;;;;;;5095950;28;20073;-74
2021/03/16 05:50:42;;;;;;;1.55;0.70;;;6.10;99.90;;;;;;5095710;28;20050;-74
2021/03/16 05:53:27;;;;;;;2.33;0.63;;;6.20;99.90;;;;;;5095637;28;20503;-74
2021/03/16 05:56:11;;;;;;;0.40;0.40;;;6.20;99.90;;;;;;5095642;28;20043;-74
2021/03/16 05:58:59;;;;;;;4.72;1.00;;;6.30;99.90;;;;;;5095409;28;20059;-74
2021/03/16 06:01:44;;;;;;;0.57;0.50;;;6.40;99.90;;;;;;5095567;28;20093;-75
2021/03/16 06:04:29;;;;;;;1.27;0.60;;;6.50;99.90;;;;;;5095304;28;20035;-74
2021/03/16 06:07:14;;;;;;;2.00;0.73;;;6.60;99.90;;;;;;5095476;28;20110;-75
2021/03/16 06:09:59;;;;;;;1.75;0.50;;;6.60;99.90;;;;;;5095357;28;20089;-75
2021/03/16 06:12:43;;;;;;;1.02;0.70;;;6.70;99.90;;;;;;5095302;28;20050;-74
2021/03/16 06:15:28;;;;;;;3.30;0.70;;;6.90;99.90;;;;;;5095314;28;20031;-74
2021/03/16 06:18:25;;;;;;;4.72;0.82;;;6.90;99.90;;;;;;5094403;28;20093;-74
2021/03/16 06:21:10;;;;;;;7.95;0.70;;;7.00;99.90;;;;;;5095233;28;20066;-74
2021/03/16 06:23:59;;;;;;;0.90;0.65;;;7.10;99.90;;;;;;5095070;28;20039;-75
2021/03/16 06:26:48;;;;;;;1.23;0.52;;;7.30;99.90;;;;;;5095253;28;20039;-75
2021/03/16 06:29:42;;;;;;;2.60;1.05;;;7.40;99.90;;;;;;5095115;28;20117;-75
2021/03/16 06:32:36;;;;;;;1.40;0.73;;;7.60;99.90;;;;;;5094632;28;20046;-74
2021/03/16 06:35:22;;;;;;;2.83;0.45;;;7.70;99.90;;;;;;5093885;28;20090;-76
2021/03/16 06:38:11;;;;;;;0.30;0.30;;;7.90;99.90;;;;;;5094909;28;20035;-77
2021/03/16 06:41:16;;;;;;;2.00;0.50;;;8.00;99.90;;;;;;5093775;28;20074;-77
2021/03/16 06:44:04;;;;;;;1.13;0.50;;;8.20;99.90;;;;;;5094464;28;20040;-77
2021/03/16 06:46:52;;;;;;;6.35;0.65;;;8.30;99.90;;;;;;5094648;28;20111;-76
2021/03/16 06:49:39;;;;;;;3.25;0.65;;;8.40;99.90;;;;;;5094751;28;20105;-77
2021/03/16 06:52:26;;;;;;;0.47;0.45;;;8.30;99.90;;;;;;5093449;28;20055;-75
2021/03/16 06:55:14;;;;;;;4.32;0.98;;;8.40;99.90;;;;;;5094313;28;20106;-77
2021/03/16 06:58:08;;;;;;;1.08;0.30;;;8.40;99.90;;;;;;5094446;28;20093;-75
2021/03/16 07:01:09;;;;;;;3.67;1.27;;;8.50;99.90;;;;;;5095264;28;20058;-74
2021/03/16 07:03:54;;;;;;;3.35;0.70;;;8.60;99.90;;;;;;5093398;28;20113;-75
2021/03/16 07:06:41;;;;;;;2.65;0.30;;;8.70;99.90;;;;;;5094379;28;20113;-76
2021/03/16 07:09:25;;;;;;;1.15;0.40;;;8.80;99.90;;;;;;5094200;28;20128;-76
2021/03/16 07:12:12;;;;;;;1.90;1.27;;;9.00;99.90;;;;;;5093931;28;20058;-76
2021/03/16 07:14:57;;;;;;;1.00;0.60;;;9.00;99.90;;;;;;5093866;28;20043;-76
2021/03/16 07:17:43;;;;;;;3.03;0.63;;;9.10;99.90;;;;;;5094195;28;20097;-76
2021/03/16 07:20:34;;;;;;;2.17;0.57;;;9.30;99.90;;;;;;5094115;28;20442;-77
2021/03/16 07:23:21;;;;;;;1.65;0.88;;;9.30;99.90;;;;;;5093944;28;20526;-77
2021/03/16 07:26:06;;;;;;;0.60;0.40;;;9.40;99.90;;;;;;5093966;28;20038;-77
2021/03/16 07:28:52;;;;;;;3.03;0.40;;;9.50;99.90;;;;;;5092768;28;20039;-76
2021/03/16 07:31:38;;;;;;;2.08;0.50;;;9.60;99.90;;;;;;5093593;28;20095;-75
2021/03/16 07:34:23;;;;;;;3.33;0.63;;;9.60;99.90;;;;;;5093757;28;20096;-75
2021/03/16 07:37:09;;;;;;;3.22;0.80;;;9.80;99.90;;;;;;5093487;28;20467;-76
2021/03/16 07:39:55;;;;;;;1.38;0.90;;;9.90;99.90;;;;;;5093685;28;20085;-77
2021/03/16 07:42:40;;;;;;;3.00;0.50;;;10.00;99.90;;;;;;5093351;28;20087;-77
2021/03/16 07:45:26;;;;;;;1.73;0.50;;;10.10;99.90;;;;;;5093535;28;20100;-76
2021/03/16 07:48:21;;;;;;;3.20;0.60;;;10.20;99.90;;;;;;5092987;28;20054;-74
2021/03/16 07:51:16;;;;;;;6.43;0.95;;;10.20;99.90;;;;;;5093134;28;20039;-74
2021/03/16 07:54:05;;;;;;;3.63;0.80;;;10.40;99.90;;;;;;5093552;28;20077;-78
2021/03/16 07:57:08;;;;;;;1.67;0.63;;;10.40;99.90;;;;;;5093104;28;20039;-74
2021/03/16 08:00:05;;;;;;;1.40;0.75;;;10.50;99.90;;;;;;5092928;28;20137;-77
2021/03/16 08:03:00;;;;;;;4.53;1.52;;;10.60;99.90;;;;;;5093293;28;20098;-77
2021/03/16 08:05:44;;;;;;;2.88;0.77;;;10.70;99.90;;;;;;5093000;28;20031;-77
2021/03/16 08:08:40;;;;;;;1.02;0.60;;;10.80;99.90;;;;;;5092076;28;20051;-74
2021/03/16 08:11:45;;;;;;;4.00;1.05;;;10.90;99.90;;;;;;5091924;28;20094;-77
2021/03/16 08:14:31;;;;;;;21.23;1.95;;;11.10;99.90;;;;;;5096053;28;20035;-75
2021/03/16 08:17:55;;;;;;;1.83;0.85;;;11.00;99.90;;;;;;5095336;28;20564;-75
2021/03/16 08:20:43;;;;;;;3.17;0.73;;;11.10;99.90;;;;;;5092660;28;20035;-77
2021/03/16 08:23:31;;;;;;;2.92;0.80;;;11.00;99.90;;;;;;5093052;28;20039;-76
2021/03/16 08:26:16;;;;;;;2.28;0.90;;;11.10;99.90;;;;;;5092879;28;20047;-76
2021/03/16 08:29:01;;;;;;;2.00;1.00;;;11.20;99.70;;;;;;5092804;28;20062;-75
2021/03/16 08:31:45;;;;;;;3.10;0.65;;;11.20;98.90;;;;;;5091727;28;20130;-77
2021/03/16 08:34:31;;;;;;;2.45;0.35;;;11.40;97.40;;;;;;5092524;28;20519;-76
2021/03/16 08:37:32;;;;;;;0.55;0.40;;;11.50;96.00;;;;;;5092667;28;20086;-77
2021/03/16 08:40:22;;;;;;;1.63;1.25;;;11.60;95.70;;;;;;5093113;28;20132;-74
2021/03/16 08:43:10;;;;;;;3.38;0.88;;;11.70;95.20;;;;;;5092514;28;20389;-74
2021/03/16 08:45:56;;;;;;;2.83;0.63;;;11.80;94.50;;;;;;5092596;28;20116;-75
2021/03/16 08:48:46;;;;;;;1.25;0.63;;;11.90;93.60;;;;;;5092472;28;20047;-77
2021/03/16 08:51:33;;;;;;;1.05;0.70;;;12.00;94.00;;;;;;5092571;28;20147;-74
2021/03/16 08:54:28;;;;;;;1.08;0.30;;;12.30;94.50;;;;;;5092724;28;20449;-74
2021/03/16 08:57:23;;;;;;;1.02;0.90;;;12.50;92.60;;;;;;5092281;28;20511;-75
2021/03/16 09:00:09;;;;;;;0.45;0.45;;;12.40;92.00;;;;;;5094754;28;20096;-75
2021/03/16 09:02:54;;;;;;;5.70;0.63;;;12.20;91.30;;;;;;5096760;28;20038;-77
2021/03/16 09:05:48;;;;;;;7.28;0.63;;;12.10;91.30;;;;;;5096590;28;20093;-74
2021/03/16 09:08:32;;;;;;;0.63;0.30;;;12.40;90.90;;;;;;5096873;28;20042;-74
2021/03/16 09:11:37;;;;;;;1.20;0.40;;;12.50;90.30;;;;;;5095427;28;20055;-74
2021/03/16 09:14:22;;;;;;;1.45;0.55;;;12.70;89.40;;;;;;5096552;28;20043;-77
2021/03/16 09:17:07;;;;;;;0.65;0.40;;;12.80;89.20;;;;;;5095648;28;20113;-77
2021/03/16 09:19:58;;;;;;;3.65;1.42;;;12.70;88.30;;;;;;5096410;28;20124;-77
2021/03/16 09:22:54;;;;;;;1.67;0.20;;;12.30;89.20;;;;;;5096351;28;20034;-77
2021/03/16 09:25:39;;;;;;;2.20;0.75;;;12.10;89.10;;;;;;5096289;28;20043;-77
2021/03/16 09:28:24;;;;;;;0.52;0.30;;;12.30;89.50;;;;;;5096352;28;20503;-74
2021/03/16 09:31:09;;;;;;;2.53;0.68;;;12.70;89.30;;;;;;5101971;28;20192;-76
2021/03/16 09:33:54;;;;;;;2.95;1.27;;;13.10;90.00;;;;;;5096192;28;20096;-75
2021/03/16 09:36:39;;;;;;;0.95;0.63;;;13.10;89.80;;;;;;5096194;28;20035;-75
2021/03/16 09:39:34;;;;;;;1.95;1.00;;;12.70;86.60;;;;;;5082142;28;20066;-77
2021/03/16 09:42:18;;;;;;;2.63;1.10;;;12.60;85.80;;;;;;5094696;28;20024;-77
2021/03/16 09:44:46;;;;;;;1.25;0.85;;;12.90;84.70;;;;;;5094481;28;20032;-76
2021/03/16 09:47:24;;;;;;;4.97;1.30;;;13.10;85.50;;;;;;5094279;28;20552;-74
2021/03/16 09:50:01;;;;;;;0.68;0.50;;;13.40;84.60;;;;;;5095619;28;20024;-74
2021/03/16 09:52:27;;;;;;;2.85;0.45;;;13.40;80.60;;;;;;5095474;28;20181;-74
2021/03/16 09:54:54;;;;;;;2.45;1.08;;;13.30;81.70;;;;;;5094160;28;20028;-74
2021/03/16 09:57:20;;;;;;;3.75;1.33;;;13.30;81.70;;;;;;5095156;28;20089;-75
2021/03/16 09:59:46;;;;;;;1.67;0.77;;;13.40;82.20;;;;;;5095310;28;20119;-74
2021/03/16 10:02:13;;;;;;;2.35;0.90;;;13.70;83.40;;;;;;5095206;28;20031;-74
2021/03/16 10:04:49;;;;;;;1.05;0.60;;;13.70;80.70;;;;;;5095336;28;20028;-74
2021/03/16 10:07:34;;;;;;;1.58;0.52;;;13.80;80.90;;;;;;5095302;28;20028;-74
2021/03/16 10:10:14;;;;;;;1.52;0.40;;;13.70;80.70;;;;;;5095136;28;20381;-77
2021/03/16 10:12:50;;;;;;;0.55;0.30;;;13.50;79.40;;;;;;5095237;28;20464;-76
2021/03/16 10:15:25;;;;;;;1.00;0.32;;;13.10;81.70;;;;;;5095115;28;20056;-74
2021/03/16 10:17:53;;;;;;;1.63;0.50;;;12.70;82.10;;;;;;5093736;28;20489;-75
2021/03/16 10:20:26;;;;;;;1.52;0.80;;;12.40;82.00;;;;;;5095046;28;20028;-75
2021/03/16 10:22:58;;;;;;;2.28;0.77;;;12.50;84.20;;;;;;5094961;28;20024;-77
2021/03/16 10:25:27;;;;;;;2.42;0.70;;;13.00;84.30;;;;;;5094991;28;20016;-76
2021/03/16 10:28:01;;;;;;;1.00;0.55;;;13.70;83.40;;;;;;5094826;28;20031;-75
2021/03/16 10:30:39;;;;;;;2.25;0.80;;;14.10;78.90;;;;;;5094827;28;20024;-75
2021/03/16 10:33:07;;;;;;;1.38;0.73;;;14.00;77.20;;;;;;5094731;28;20035;-76
2021/03/16 10:35:33;;;;;;;1.60;0.80;;;13.80;79.40;;;;;;5094837;28;20510;-74
2021/03/16 10:38:00;;;;;;;4.85;1.05;;;13.90;79.80;;;;;;5094597;28;20028;-77
2021/03/16 10:40:26;;;;;;;3.25;1.45;;;14.00;81.00;;;;;;5094632;28;20093;-75
2021/03/16 10:42:52;;;;;;;0.88;0.40;;;14.10;80.60;;;;;;5094471;28;20035;-76
2021/03/16 10:45:19;;;;;;;2.30;1.15;;;13.70;78.00;;;;;;5096354;28;20024;-75
2021/03/16 10:47:45;;;;;;;2.40;0.80;;;13.30;79.50;;;;;;5093756;28;20507;-76
2021/03/16 10:50:11;;;;;;;1.55;0.52;;;13.00;79.30;;;;;;5094400;28;20044;-76
2021/03/16 10:52:38;;;;;;;1.13;0.40;;;13.50;74.70;;;;;;5093063;28;20040;-74
2021/03/16 10:55:04;;;;;;;0.57;0.32;;;14.10;73.60;;;;;;5094480;28;20125;-75
2021/03/16 10:57:30;;;;;;;1.42;0.45;;;14.30;74.40;;;;;;5093854;28;20031;-75
2021/03/16 10:59:56;;;;;;;3.35;0.77;;;14.40;74.00;;;;;;5094123;28;20040;-74
2021/03/16 11:02:22;;;;;;;3.60;0.40;;;14.60;74.60;;;;;;5093099;28;20165;-74
2021/03/16 11:04:48;;;;;;;0.68;0.50;;;15.00;74.50;;;;;;5094171;28;20293;-75
2021/03/16 11:07:14;;;;;;;2.33;0.40;;;15.00;75.00;;;;;;5094117;28;20032;-75
2021/03/16 11:09:40;;;;;;;1.45;0.60;;;14.40;73.50;;;;;;5094090;28;20266;-75
2021/03/16 11:12:06;;;;;;;1.60;0.70;;;13.90;75.20;;;;;;5093809;28;20032;-75
2021/03/16 11:14:32;;;;;;;1.58;0.50;;;13.20;78.80;;;;;;5094057;28;20350;-74
2021/03/16 11:16:58;;;;;;;1.23;1.10;;;12.80;83.50;;;;;;5093984;28;20465;-75
2021/03/16 11:19:24;;;;;;;0.80;0.40;;;12.40;87.30;;;;;;5092701;28;20156;-74
2021/03/16 11:21:50;;;;;;;3.28;0.57;;;12.00;90.10;;;;;;5093020;28;20054;-74
2021/03/16 11:24:18;;;;;;;2.60;0.83;;;11.90;91.70;;;;;;5093822;28;20468;-74
2021/03/16 11:26:44;;;;;;;0.60;0.52;;;11.80;92.50;;;;;;5093821;28;20280;-75
2021/03/16 11:29:10;;;;;;;3.72;0.70;;;11.70;93.60;;;;;;5092472;28;20032;-75
2021/03/16 11:31:37;;;;;;;2.33;0.60;;;11.40;94.60;;;;;;5093722;28;20043;-75
2021/03/16 11:34:21;;;;;;;5.25;0.88;;;11.00;97.00;;;;;;5093639;28;20395;-75
2021/03/16 11:37:06;;;;;;;1.55;0.63;;;10.40;99.90;;;;;;5093583;28;20030;-74
2021/03/16 11:39:51;;;;;;;3.83;0.93;;;9.70;99.90;;;;;;5093482;28;20460;-75
2021/03/16 11:42:35;;;;;;;4.63;1.38;;;9.50;99.90;;;;;;5093650;28;20043;-75
2021/03/16 11:45:20;;;;;;;3.03;0.80;;;9.40;99.90;;;;;;5093413;28;20427;-79
2021/03/16 11:48:05;;;;;;;2.85;1.08;;;9.50;99.90;;;;;;5093370;28;20241;-77
2021/03/16 11:50:50;;;;;;;2.67;0.77;;;9.70;99.90;;;;;;5093420;28;20043;-74
2021/03/16 11:53:34;;;;;;;1.48;0.70;;;10.00;99.90;;;;;;5093283;28;20038;-78
2021/03/16 11:56:19;;;;;;;1.08;0.60;;;10.80;99.90;;;;;;5093225;28;20046;-78
2021/03/16 11:59:04;;;;;;;0.73;0.68;;;11.50;99.90;;;;;;5093130;28;20494;-78
2021/03/16 12:01:49;;;;;;;2.67;0.60;;;12.00;99.90;;;;;;5096301;28;20054;-75
2021/03/16 12:04:33;;;;;;;3.40;0.90;;;12.50;99.90;;;;;;5093412;28;20393;-76
2021/03/16 12:07:18;;;;;;;1.08;0.70;;;12.80;99.90;;;;;;5093200;28;20039;-77
2021/03/16 12:10:04;;;;;;;3.40;1.08;;;12.80;99.90;;;;;;5093187;28;20089;-78
2021/03/16 12:12:48;;;;;;;2.40;0.55;;;13.00;99.90;;;;;;5093020;28;20047;-76
2021/03/16 12:15:33;;;;;;;0.60;0.52;;;12.70;99.90;;;;;;5092947;28;20092;-77
2021/03/16 12:18:17;;;;;;;2.47;0.57;;;12.00;99.90;;;;;;5091995;28;20051;-75
2021/03/16 12:21:02;;;;;;;1.80;0.73;;;11.40;99.90;;;;;;5093014;28;20569;-76
2021/03/16 12:23:46;;;;;;;1.52;0.88;;;11.10;99.90;;;;;;5092874;28;20503;-77
2021/03/16 12:26:31;;;;;;;1.95;0.65;;;10.90;99.90;;;;;;5092845;28;20393;-77
2021/03/16 12:29:16;;;;;;;3.65;1.23;;;10.80;99.90;;;;;;5093009;28;20055;-77
2021/03/16 12:32:00;;;;;;;8.23;1.48;;;10.70;99.90;;;;;;5092741;28;20062;-77
2021/03/16 12:34:45;;;;;;;1.80;0.93;;;10.70;99.90;;;;;;5092956;28;20031;-75
2021/03/16 12:37:29;;;;;;;3.08;0.98;;;10.90;99.90;;;;;;5091727;28;20031;-77
2021/03/16 12:40:14;;;;;;;3.03;0.95;;;11.60;99.90;;;;;;5091843;28;20542;-74
2021/03/16 12:42:59;;;;;;;1.88;1.00;;;12.40;99.90;;;;;;5092875;28;20399;-74
2021/03/16 12:45:43;;;;;;;1.88;0.80;;;12.40;99.90;;;;;;5092779;28;20047;-75
2021/03/16 12:48:28;;;;;;;6.95;1.70;;;12.20;99.90;;;;;;5092832;28;20043;-77
2021/03/16 12:51:12;;;;;;;6.95;3.35;;;12.10;99.90;;;;;;5092404;28;20101;-76
2021/03/16 12:53:57;;;;;;;2.60;0.80;;;12.10;99.90;;;;;;5092666;28;20116;-77
2021/03/16 12:56:42;;;;;;;2.28;1.33;;;12.10;99.90;;;;;;5092611;28;20089;-76
2021/03/16 12:59:26;;;;;;;1.52;1.00;;;12.10;99.90;;;;;;5092343;28;20537;-74
2021/03/16 13:02:11;;;;;;;0.90;0.75;;;11.90;99.90;;;;;;5092647;28;20507;-75
2021/03/16 13:04:55;;;;;;;3.75;1.90;;;12.70;99.90;;;;;;5092232;28;20032;-75
2021/03/16 13:07:40;;;;;;;2.10;0.60;;;13.20;99.90;;;;;;5091297;28;20043;-76
2021/03/16 13:10:25;;;;;;;1.25;0.60;;;13.90;96.40;;;;;;5091417;28;20095;-76
2021/03/16 13:13:09;;;;;;;2.38;0.82;;;14.30;94.70;;;;;;5092497;28;20051;-75
2021/03/16 13:15:54;;;;;;;0.63;0.40;;;14.10;93.20;;;;;;5092544;28;20042;-76
2021/03/16 13:18:38;;;;;;;2.20;0.88;;;13.70;92.40;;;;;;5092633;28;20047;-76
2021/03/16 13:21:23;;;;;;;1.35;0.70;;;13.00;93.50;;;;;;5092293;28;20131;-75
2021/03/16 13:24:08;;;;;;;1.75;0.60;;;12.50;94.10;;;;;;5092381;28;20574;-75
2021/03/16 13:26:52;;;;;;;1.17;0.55;;;12.10;94.40;;;;;;5092472;28;20043;-75
2021/03/16 13:29:36;;;;;;;2.08;0.85;;;11.90;94.60;;;;;;5092063;28;20038;-75
2021/03/16 13:32:21;;;;;;;2.25;0.70;;;12.20;94.90;;;;;;5091980;28;20541;-75
2021/03/16 13:35:06;;;;;;;2.28;0.70;;;12.40;94.00;;;;;;5092043;28;20042;-75
2021/03/16 13:37:52;;;;;;;1.10;0.80;;;12.80;94.70;;;;;;5090899;28;20051;-76
2021/03/16 13:40:36;;;;;;;1.10;0.73;;;13.60;94.50;;;;;;5091974;28;20062;-75
2021/03/16 13:43:21;;;;;;;1.20;0.47;;;14.10;93.10;;;;;;5092030;28;20043;-75
2021/03/16 13:46:06;;;;;;;3.05;0.70;;;13.70;92.20;;;;;;5093137;28;20396;-75
2021/03/16 13:48:50;;;;;;;1.35;0.60;;;13.70;93.20;;;;;;5095871;28;20393;-75
2021/03/16 13:51:36;;;;;;;2.75;0.80;;;14.20;91.50;;;;;;5095776;28;20193;-75
2021/03/16 13:54:20;;;;;;;0.55;0.40;;;14.10;91.20;;;;;;5095572;28;20396;-75
2021/03/16 13:57:05;;;;;;;2.17;0.70;;;13.50;90.70;;;;;;5095707;28;20078;-74
2021/03/16 13:59:50;;;;;;;2.85;0.40;;;13.10;92.10;;;;;;5095413;28;20043;-75
2021/03/16 14:02:34;;;;;;;1.10;0.65;;;12.70;93.50;;;;;;5095611;28;20061;-74
2021/03/16 14:05:20;;;;;;;1.35;0.63;;;12.40;94.80;;;;;;5094407;28;20061;-74
2021/03/16 14:08:06;;;;;;;1.58;0.65;;;12.10;94.70;;;;;;5095160;28;20524;-75